createdAt,value
2022-09-03T00:00:20.349Z,55.70
2022-09-03T00:02:56.138Z,56.00
2022-09-03T00:05:37.164Z,56.00
2022-09-03T00:08:09.876Z,56.30
2022-09-03T00:10:51.178Z,56.30
2022-09-03T00:13:30.796Z,56.80
2022-09-03T00:15:59.905Z,56.60
2022-09-03T00:18:32.758Z,57.60
2022-09-03T00:21:09.772Z,57.00
2022-09-03T00:23:42.746Z,56.90
2022-09-03T00:26:12.610Z,57.30
2022-09-03T00:28:43.390Z,57.30
2022-09-03T00:31:28.385Z,57.30
2022-09-03T00:34:11.893Z,57.20
2022-09-03T00:36:44.692Z,57.50
2022-09-03T00:39:21.274Z,57.70
2022-09-03T00:42:26.808Z,57.60
2022-09-03T00:45:02.234Z,57.60
2022-09-03T00:47:38.060Z,57.70
2022-09-03T00:50:31.431Z,58.00
2022-09-03T00:53:17.119Z,58.00
2022-09-03T00:56:05.706Z,58.20
2022-09-03T00:58:39.297Z,58.10
2022-09-03T01:01:21.055Z,58.30
2022-09-03T01:04:00.709Z,58.20
2022-09-03T01:06:55.637Z,58.40
2022-09-03T01:09:28.689Z,58.70
2022-09-03T01:12:00.627Z,58.80
2022-09-03T01:14:53.818Z,59.00
2022-09-03T01:17:32.398Z,59.40
2022-09-03T01:20:14.758Z,59.40
2022-09-03T01:23:12.118Z,59.40
2022-09-03T01:25:45.782Z,59.80
2022-09-03T01:28:44.557Z,60.00
2022-09-03T01:31:29.750Z,60.10
2022-09-03T01:34:22.261Z,60.00
2022-09-03T01:37:07.173Z,60.00
2022-09-03T01:40:14.419Z,60.50
2022-09-03T01:43:34.101Z,60.40
2022-09-03T01:46:14.034Z,60.60
2022-09-03T01:48:46.404Z,60.90
2022-09-03T01:51:23.636Z,61.00
2022-09-03T01:53:57.623Z,61.10
2022-09-03T01:57:01.538Z,61.10
2022-09-03T01:59:40.950Z,61.20
2022-09-03T02:02:23.967Z,61.30
2022-09-03T02:05:14.950Z,61.60
2022-09-03T02:07:41.821Z,61.50
2022-09-03T02:10:13.618Z,61.60
2022-09-03T02:12:44.269Z,61.90
2022-09-03T02:15:17.409Z,62.00
2022-09-03T02:17:52.958Z,62.10
2022-09-03T02:20:26.659Z,62.30
2022-09-03T02:22:56.452Z,62.30
2022-09-03T02:25:29.162Z,62.80
2022-09-03T02:27:56.176Z,62.40
2022-09-03T02:30:22.929Z,62.40
2022-09-03T02:32:49.740Z,62.20
2022-09-03T02:35:19.102Z,62.60
2022-09-03T02:37:45.955Z,62.70
2022-09-03T02:40:12.777Z,62.50
2022-09-03T02:42:42.140Z,62.90
2022-09-03T02:45:28.528Z,62.90
2022-09-03T02:47:57.625Z,62.90
2022-09-03T02:50:25.102Z,63.10
2022-09-03T02:52:52.844Z,62.90
2022-09-03T02:55:20.337Z,62.90
2022-09-03T02:57:47.388Z,62.90
2022-09-03T03:00:14.851Z,63.20
2022-09-03T03:02:43.939Z,63.70
2022-09-03T03:05:18.828Z,63.70
2022-09-03T03:07:45.709Z,63.30
2022-09-03T03:10:12.642Z,63.30
2022-09-03T03:12:40.163Z,63.30
2022-09-03T03:15:12.160Z,63.60
2022-09-03T03:17:43.532Z,63.10
2022-09-03T03:20:10.729Z,63.30
2022-09-03T03:22:37.580Z,63.40
2022-09-03T03:25:05.816Z,63.40
2022-09-03T03:27:32.585Z,63.30
2022-09-03T03:30:01.560Z,63.40
2022-09-03T03:32:28.295Z,63.40
2022-09-03T03:34:55.070Z,63.50
2022-09-03T03:37:21.851Z,63.70
2022-09-03T03:39:51.337Z,63.50
2022-09-03T03:42:23.930Z,63.70
2022-09-03T03:44:50.705Z,63.90
2022-09-03T03:47:18.319Z,63.80
2022-09-03T03:49:46.505Z,63.90
2022-09-03T03:52:13.198Z,63.80
2022-09-03T03:54:40.001Z,63.80
2022-09-03T03:57:09.249Z,63.80
2022-09-03T03:59:36.021Z,63.70
2022-09-03T04:02:05.378Z,63.90
2022-09-03T04:04:34.236Z,64.10
2022-09-03T04:07:01.017Z,64.00
2022-09-03T04:09:28.065Z,63.90
2022-09-03T04:11:56.868Z,63.70
2022-09-03T04:14:27.418Z,63.80
2022-09-03T04:16:54.859Z,63.70
2022-09-03T04:19:21.697Z,63.80
2022-09-03T04:21:48.487Z,63.70
2022-09-03T04:24:15.282Z,63.70
2022-09-03T04:26:45.190Z,63.90
2022-09-03T04:29:12.016Z,64.00
2022-09-03T04:31:39.678Z,64.40
2022-09-03T04:34:06.995Z,64.30
2022-09-03T04:36:35.088Z,64.10
2022-09-03T04:39:04.429Z,64.00
2022-09-03T04:41:31.870Z,64.10
2022-09-03T04:43:59.724Z,64.50
2022-09-03T04:46:33.615Z,64.70
2022-09-03T04:49:01.199Z,64.70
2022-09-03T04:51:33.553Z,64.60
2022-09-03T04:54:02.313Z,64.50
2022-09-03T04:56:33.464Z,64.60
2022-09-03T04:59:03.157Z,64.60
2022-09-03T05:01:32.745Z,64.60
2022-09-03T05:04:06.763Z,64.70
2022-09-03T05:06:34.937Z,64.90
2022-09-03T05:09:02.443Z,65.10
2022-09-03T05:11:31.790Z,65.20
2022-09-03T05:14:00.080Z,65.10
2022-09-03T05:16:30.969Z,65.10
2022-09-03T05:19:01.682Z,65.40
2022-09-03T05:21:31.763Z,65.00
2022-09-03T05:24:00.152Z,64.90
2022-09-03T05:26:37.175Z,64.80
2022-09-03T05:29:10.079Z,64.70
2022-09-03T05:31:41.736Z,64.90
2022-09-03T05:34:10.175Z,65.10
2022-09-03T05:36:43.230Z,65.70
2022-09-03T05:39:10.113Z,65.10
2022-09-03T05:41:43.013Z,65.40
2022-09-03T05:44:10.017Z,65.40
2022-09-03T05:46:42.017Z,65.30
2022-09-03T05:49:11.315Z,65.20
2022-09-03T05:51:40.084Z,65.30
2022-09-03T05:54:08.606Z,65.40
2022-09-03T05:56:40.258Z,65.30
2022-09-03T05:59:10.364Z,65.30
2022-09-03T06:01:39.895Z,65.40
2022-09-03T06:04:13.717Z,65.20
2022-09-03T06:06:43.530Z,65.30
2022-09-03T06:09:13.724Z,65.50
2022-09-03T06:11:44.069Z,65.40
2022-09-03T06:14:14.667Z,65.40
2022-09-03T06:16:46.360Z,65.40
2022-09-03T06:19:14.382Z,65.10
2022-09-03T06:21:43.952Z,65.00
2022-09-03T06:24:20.078Z,65.10
2022-09-03T06:26:47.308Z,65.30
2022-09-03T06:29:14.847Z,65.30
2022-09-03T06:31:41.873Z,65.10
2022-09-03T06:34:08.826Z,65.10
2022-09-03T06:36:35.818Z,65.00
2022-09-03T06:39:02.991Z,65.30
2022-09-03T06:41:35.439Z,66.60
2022-09-03T06:44:12.673Z,65.40
2022-09-03T06:46:44.972Z,64.90
2022-09-03T06:49:13.188Z,65.90
2022-09-03T06:51:40.809Z,64.50
2022-09-03T06:54:13.003Z,65.00
2022-09-03T06:56:41.601Z,65.00
2022-09-03T06:59:15.254Z,64.50
2022-09-03T07:01:46.247Z,64.40
2022-09-03T07:04:16.831Z,64.60
2022-09-03T07:06:49.697Z,64.50
2022-09-03T07:09:18.434Z,65.10
2022-09-03T07:11:49.269Z,65.20
2022-09-03T07:14:18.820Z,65.00
2022-09-03T07:16:48.497Z,64.70
2022-09-03T07:19:16.330Z,64.70
2022-09-03T07:21:49.131Z,64.60
2022-09-03T07:24:18.324Z,64.70
2022-09-03T07:26:46.599Z,64.70
2022-09-03T07:29:15.923Z,65.00
2022-09-03T07:31:43.967Z,64.80
2022-09-03T07:34:12.730Z,64.50
2022-09-03T07:36:43.106Z,64.60
2022-09-03T07:39:15.439Z,64.50
2022-09-03T07:41:48.335Z,64.20
2022-09-03T07:44:20.606Z,64.30
2022-09-03T07:46:51.452Z,64.20
2022-09-03T07:49:20.378Z,63.90
2022-09-03T07:51:50.888Z,63.90
2022-09-03T07:54:17.854Z,63.70
2022-09-03T07:56:44.904Z,63.50
2022-09-03T07:59:12.130Z,63.30
2022-09-03T08:01:41.308Z,63.60
2022-09-03T08:04:09.396Z,63.20
2022-09-03T08:06:40.389Z,63.40
2022-09-03T08:09:14.069Z,63.70
2022-09-03T08:11:43.677Z,64.10
2022-09-03T08:14:13.160Z,63.90
2022-09-03T08:16:42.593Z,64.00
2022-09-03T08:19:09.736Z,64.40
2022-09-03T08:21:37.000Z,64.90
2022-09-03T08:24:06.253Z,65.10
2022-09-03T08:26:39.990Z,65.10
2022-09-03T08:29:07.505Z,65.50
2022-09-03T08:31:39.147Z,65.80
2022-09-03T08:34:13.100Z,66.00
2022-09-03T08:36:41.542Z,67.40
2022-09-03T08:39:10.487Z,68.60
2022-09-03T08:41:41.799Z,69.20
2022-09-03T08:44:39.930Z,69.30
2022-09-03T08:47:09.662Z,69.70
2022-09-03T08:49:52.062Z,69.90
2022-09-03T08:52:49.055Z,70.20
2022-09-03T08:55:30.204Z,70.20
2022-09-03T08:58:16.481Z,71.40
2022-09-03T09:01:23.958Z,71.00
2022-09-03T09:04:02.900Z,70.70
2022-09-03T09:06:56.224Z,70.60
2022-09-03T09:09:44.155Z,70.40
2022-09-03T09:12:21.151Z,70.20
2022-09-03T09:15:16.080Z,70.00
2022-09-03T09:18:03.743Z,70.10
2022-09-03T09:20:42.621Z,70.60
2022-09-03T09:23:33.398Z,71.00
2022-09-03T09:26:05.540Z,71.30
2022-09-03T09:28:42.499Z,71.60
2022-09-03T09:31:15.618Z,71.70
2022-09-03T09:33:46.183Z,72.30
2022-09-03T09:36:16.930Z,72.70
2022-09-03T09:38:46.672Z,72.50
2022-09-03T09:41:20.033Z,72.50
2022-09-03T09:44:02.131Z,72.60
2022-09-03T09:46:41.154Z,73.00
2022-09-03T09:49:32.234Z,73.90
2022-09-03T09:52:09.500Z,74.30
2022-09-03T09:54:36.336Z,74.60
2022-09-03T09:57:25.565Z,74.80
2022-09-03T10:00:13.309Z,74.50
2022-09-03T10:02:59.454Z,74.10
2022-09-03T10:05:30.978Z,73.60
2022-09-03T10:08:04.745Z,73.50
2022-09-03T10:10:45.902Z,73.40
2022-09-03T10:13:20.512Z,73.30
2022-09-03T10:16:19.517Z,73.90
2022-09-03T10:18:55.119Z,74.60
2022-09-03T10:21:32.969Z,74.90
2022-09-03T10:24:15.396Z,73.80
2022-09-03T10:26:46.004Z,73.10
2022-09-03T10:29:23.237Z,72.20
2022-09-03T10:32:16.776Z,71.30
2022-09-03T10:35:19.289Z,70.60
2022-09-03T10:38:01.254Z,70.90
2022-09-03T10:40:41.027Z,70.60
2022-09-03T10:43:41.623Z,70.30
2022-09-03T10:46:25.263Z,70.30
2022-09-03T10:49:28.058Z,70.40
2022-09-03T10:52:16.054Z,69.90
2022-09-03T10:54:56.229Z,70.00
2022-09-03T10:57:51.100Z,70.10
2022-09-03T11:00:19.633Z,69.20
2022-09-03T11:03:25.093Z,68.90
2022-09-03T11:06:13.631Z,68.80
2022-09-03T11:09:06.742Z,67.90
2022-09-03T11:11:47.726Z,67.70
2022-09-03T11:14:42.914Z,68.10
2022-09-03T11:17:25.358Z,67.70
2022-09-03T11:20:01.342Z,67.00
2022-09-03T11:22:30.054Z,66.50
2022-09-03T11:25:00.978Z,66.50
2022-09-03T11:27:42.891Z,66.10
2022-09-03T11:30:10.228Z,66.00
2022-09-03T11:32:40.863Z,65.80
2022-09-03T11:35:26.169Z,65.50
2022-09-03T11:38:03.039Z,65.30
2022-09-03T11:40:34.206Z,64.90
2022-09-03T11:43:29.497Z,64.40
2022-09-03T11:46:13.974Z,64.40
2022-09-03T11:48:46.821Z,64.30
2022-09-03T11:51:21.657Z,64.20
2022-09-03T11:54:00.081Z,63.50
2022-09-03T11:56:27.143Z,63.30
2022-09-03T11:59:15.244Z,63.20
2022-09-03T12:01:53.275Z,63.30
2022-09-03T12:04:43.570Z,63.30
2022-09-03T12:07:29.164Z,63.60
2022-09-03T12:10:08.836Z,63.10
2022-09-03T12:13:09.759Z,63.40
2022-09-03T12:16:01.904Z,62.70
2022-09-03T12:18:35.703Z,62.70
2022-09-03T12:21:05.859Z,63.00
2022-09-03T12:23:42.370Z,63.10
2022-09-03T12:26:23.806Z,63.70
2022-09-03T12:28:55.501Z,64.00
2022-09-03T12:31:44.228Z,63.90
2022-09-03T12:34:15.157Z,63.00
2022-09-03T12:36:51.601Z,62.80
2022-09-03T12:40:04.772Z,62.30
2022-09-03T12:42:10.927Z,62.30
2022-09-03T12:44:41.906Z,61.70
2022-09-03T12:50:10.956Z,59.60
2022-09-03T12:52:42.459Z,58.90
2022-09-03T12:55:33.785Z,58.70
2022-09-03T12:58:27.212Z,57.10
2022-09-03T13:01:17.274Z,56.50
2022-09-03T13:04:04.081Z,55.90
2022-09-03T13:06:42.850Z,55.40
2022-09-03T13:09:20.036Z,55.80
2022-09-03T13:11:52.633Z,55.50
2022-09-03T13:14:20.181Z,54.50
2022-09-03T13:16:55.238Z,54.60
2022-09-03T13:19:50.785Z,54.00
2022-09-03T13:22:42.590Z,55.40
2022-09-03T13:25:41.648Z,55.10
2022-09-03T13:28:55.499Z,54.60
2022-09-03T13:31:44.738Z,53.80
2022-09-03T13:34:29.942Z,53.30
2022-09-03T13:37:23.242Z,53.70
2022-09-03T13:39:59.412Z,53.50
2022-09-03T13:42:43.976Z,53.30
2022-09-03T13:45:33.586Z,52.50
2022-09-03T13:48:43.260Z,52.80
2022-09-03T13:51:19.010Z,52.70
2022-09-03T13:54:09.283Z,52.70
2022-09-03T13:57:03.537Z,53.10
2022-09-03T13:59:46.078Z,54.70
2022-09-03T14:02:34.728Z,54.70
2022-09-03T14:05:27.895Z,54.20
2022-09-03T14:08:27.002Z,53.80
2022-09-03T14:11:18.587Z,53.30
2022-09-03T14:14:17.176Z,52.30
2022-09-03T14:17:12.410Z,51.90
2022-09-03T14:19:55.396Z,51.90
2022-09-03T14:22:29.357Z,51.90
2022-09-03T14:25:16.137Z,52.70
2022-09-03T14:27:43.239Z,53.10
2022-09-03T14:30:18.790Z,52.90
2022-09-03T14:32:55.041Z,52.30
2022-09-03T14:35:25.033Z,51.70
2022-09-03T14:38:21.552Z,51.70
2022-09-03T14:41:03.697Z,51.90
2022-09-03T14:44:08.963Z,51.20
2022-09-03T14:46:47.453Z,51.50
2022-09-03T14:49:54.475Z,51.30
2022-09-03T14:52:30.171Z,51.50
2022-09-03T14:55:23.791Z,51.90
2022-09-03T14:58:05.881Z,52.60
2022-09-03T15:00:58.386Z,54.40
2022-09-03T15:03:49.373Z,55.00
2022-09-03T15:06:43.978Z,53.60
2022-09-03T15:09:56.692Z,54.80
2022-09-03T15:12:35.141Z,55.60
2022-09-03T15:15:11.607Z,56.60
2022-09-03T15:18:03.010Z,57.10
2022-09-03T15:20:56.570Z,57.60
2022-09-03T15:23:50.031Z,58.20
2022-09-03T15:26:19.279Z,58.60
2022-09-03T15:29:00.782Z,58.80
2022-09-03T15:31:38.886Z,59.50
2022-09-03T15:34:55.610Z,59.50
2022-09-03T15:37:32.344Z,59.70
2022-09-03T15:40:12.375Z,60.00
2022-09-03T15:42:44.499Z,60.30
2022-09-03T15:45:19.328Z,60.40
2022-09-03T15:47:55.187Z,60.70
2022-09-03T15:50:40.577Z,60.80
2022-09-03T15:53:25.493Z,61.10
2022-09-03T15:56:30.077Z,61.00
2022-09-03T15:59:14.722Z,61.20
2022-09-03T16:01:56.648Z,61.50
2022-09-03T16:05:01.203Z,61.50
2022-09-03T16:07:38.327Z,62.00
2022-09-03T16:10:25.960Z,68.50
2022-09-03T16:13:19.207Z,70.90
2022-09-03T16:15:57.848Z,71.20
2022-09-03T16:18:36.741Z,72.10
2022-09-03T16:21:23.218Z,71.90
2022-09-03T16:24:03.619Z,72.90
2022-09-03T16:26:50.925Z,73.30
2022-09-03T16:29:31.537Z,74.90
2022-09-03T16:32:10.412Z,75.90
2022-09-03T16:35:01.932Z,76.60
2022-09-03T16:37:37.651Z,78.30
2022-09-03T16:40:38.824Z,80.50
2022-09-03T16:43:40.573Z,81.70
2022-09-03T16:46:40.939Z,83.30
2022-09-03T16:49:28.028Z,83.70
2022-09-03T16:52:04.813Z,84.30
2022-09-03T16:54:37.046Z,85.90
2022-09-03T16:57:30.920Z,86.90
2022-09-03T17:00:11.976Z,86.60
2022-09-03T17:02:53.705Z,87.70
2022-09-03T17:05:45.803Z,90.10
2022-09-03T17:08:20.713Z,90.70
2022-09-03T17:11:17.778Z,90.90
2022-09-03T17:13:47.585Z,90.60
2022-09-03T17:16:26.705Z,90.10
2022-09-03T17:19:05.516Z,90.10
2022-09-03T17:21:50.509Z,90.00
2022-09-03T17:24:19.954Z,90.10
2022-09-03T17:27:11.251Z,90.60
2022-09-03T17:29:52.041Z,90.70
2022-09-03T17:32:25.930Z,90.90
2022-09-03T17:35:11.209Z,91.30
2022-09-03T17:37:44.774Z,91.60
2022-09-03T17:40:17.589Z,91.90
2022-09-03T17:43:12.906Z,92.30
2022-09-03T17:45:57.998Z,93.10
2022-09-03T17:48:45.787Z,94.10
2022-09-03T17:51:12.910Z,94.30
2022-09-03T17:53:40.331Z,95.30
2022-09-03T17:56:19.052Z,96.00
2022-09-03T17:59:10.228Z,97.10
2022-09-03T18:01:47.199Z,98.30
2022-09-03T18:04:38.626Z,98.90
2022-09-03T18:07:39.019Z,99.40
2022-09-03T18:10:30.320Z,99.70
2022-09-03T18:13:13.592Z,99.50
2022-09-03T18:15:40.409Z,98.80
2022-09-03T18:18:31.372Z,98.70
2022-09-03T18:21:31.345Z,98.70
2022-09-03T18:24:25.668Z,98.60
2022-09-03T18:27:23.457Z,98.70
2022-09-03T18:30:23.765Z,98.80
2022-09-03T18:33:09.308Z,99.70
2022-09-03T18:35:55.265Z,99.90
2022-09-03T18:38:48.343Z,99.90
2022-09-03T18:41:58.891Z,99.90
2022-09-03T18:45:48.374Z,99.90
2022-09-03T18:49:04.910Z,99.90
2022-09-03T18:52:15.405Z,99.90
2022-09-03T18:55:31.601Z,99.90
2022-09-03T18:58:19.478Z,99.90
2022-09-03T19:01:37.587Z,99.90
2022-09-03T19:04:34.849Z,99.90
2022-09-03T19:07:44.054Z,99.90
2022-09-03T19:10:44.927Z,99.90
2022-09-03T19:13:54.859Z,99.90
2022-09-03T19:17:13.121Z,99.90
2022-09-03T19:20:07.517Z,99.90
2022-09-03T19:22:58.537Z,99.90
2022-09-03T19:25:48.766Z,99.90
2022-09-03T19:28:50.855Z,99.90
2022-09-03T19:32:07.033Z,99.90
2022-09-03T19:35:04.727Z,99.90
2022-09-03T19:38:11.810Z,99.90
2022-09-03T19:41:24.309Z,99.90
2022-09-03T19:44:39.769Z,99.90
2022-09-03T19:47:29.021Z,99.90
2022-09-03T19:50:58.891Z,99.90
2022-09-03T19:53:44.415Z,99.90
2022-09-03T19:56:48.405Z,99.90
2022-09-03T19:59:44.720Z,99.90
2022-09-03T20:02:30.310Z,99.90
2022-09-03T20:05:18.173Z,99.90
2022-09-03T20:08:06.726Z,99.90
2022-09-03T20:10:37.377Z,99.90
2022-09-03T20:13:19.899Z,99.90
2022-09-03T20:16:09.142Z,99.90
2022-09-03T20:18:57.652Z,99.90
2022-09-03T20:22:02.824Z,99.90
2022-09-03T20:24:50.467Z,99.90
2022-09-03T20:27:48.254Z,99.90
2022-09-03T20:30:19.920Z,99.90
2022-09-03T20:32:55.007Z,99.90
2022-09-03T20:35:29.356Z,99.90
2022-09-03T20:38:11.285Z,99.90
2022-09-03T20:41:07.660Z,99.90
2022-09-03T20:43:58.357Z,99.90
2022-09-03T20:46:42.509Z,99.90
2022-09-03T20:49:20.811Z,99.90
2022-09-03T20:51:58.981Z,99.90
2022-09-03T20:54:33.690Z,99.90
2022-09-03T20:57:06.075Z,99.90
2022-09-03T20:59:36.711Z,99.90
2022-09-03T21:02:25.964Z,99.90
2022-09-03T21:04:58.692Z,99.90
2022-09-03T21:07:59.689Z,99.90
2022-09-03T21:10:53.947Z,99.90
2022-09-03T21:13:38.390Z,99.90
2022-09-03T21:16:26.680Z,99.90
2022-09-03T21:18:58.606Z,99.90
2022-09-03T21:21:47.393Z,99.90
2022-09-03T21:24:16.518Z,99.90
2022-09-03T21:26:51.915Z,99.90
2022-09-03T21:29:32.980Z,99.90
2022-09-03T21:32:22.255Z,99.90
2022-09-03T21:35:06.180Z,99.90
2022-09-03T21:37:45.047Z,99.90
2022-09-03T21:40:24.179Z,99.90
2022-09-03T21:43:10.479Z,99.90
2022-09-03T21:46:08.796Z,99.90
2022-09-03T21:48:40.688Z,99.90
2022-09-03T21:51:35.942Z,99.90
2022-09-03T21:54:10.661Z,99.90
2022-09-03T21:56:45.943Z,99.90
2022-09-03T22:00:05.707Z,99.90
2022-09-03T22:02:33.503Z,99.90
2022-09-03T22:05:01.286Z,99.90
2022-09-03T22:08:00.810Z,99.90
2022-09-03T22:10:36.486Z,99.90
2022-09-03T22:13:38.388Z,99.90
2022-09-03T22:16:19.314Z,99.90
2022-09-03T22:18:50.353Z,99.90
2022-09-03T22:21:27.485Z,99.90
2022-09-03T22:24:16.173Z,99.90
2022-09-03T22:26:55.182Z,99.90
2022-09-03T22:29:33.894Z,99.90
2022-09-03T22:32:23.133Z,99.90
2022-09-03T22:35:12.853Z,99.90
2022-09-03T22:38:08.920Z,99.90
2022-09-03T22:40:53.796Z,99.90
2022-09-03T22:43:38.332Z,99.90
2022-09-03T22:46:38.510Z,99.90
2022-09-03T22:49:32.163Z,99.90
2022-09-03T22:52:14.687Z,99.90
2022-09-03T22:55:32.326Z,99.90
2022-09-03T22:58:03.173Z,99.90
2022-09-03T23:00:35.865Z,99.90
2022-09-03T23:06:36.221Z,99.90
2022-09-03T23:09:15.862Z,99.90
2022-09-03T23:11:54.100Z,99.90
2022-09-03T23:14:48.805Z,99.90
2022-09-03T23:22:43.141Z,99.90
2022-09-03T23:25:24.613Z,99.90
2022-09-03T23:28:17.711Z,99.90
2022-09-03T23:30:44.540Z,99.90
2022-09-03T23:33:11.231Z,99.90
2022-09-03T23:35:57.710Z,99.90
2022-09-03T23:38:45.301Z,99.90
2022-09-03T23:41:25.682Z,99.90
2022-09-03T23:44:12.829Z,99.90
2022-09-03T23:47:23.989Z,99.90
2022-09-03T23:49:50.709Z,99.90
2022-09-03T23:52:22.589Z,99.90
2022-09-03T23:55:18.478Z,99.90
2022-09-03T23:57:59.470Z,99.90
